Time,TemperatureF,DewpointF,PressureIn,WindDirection,WindDirectionDegrees,WindSpeedMPH,WindSpeedGustMPH,Humidity,HourlyPrecipIn,Conditions,Clouds,dailyrainin,SoftwareType,DateUTC
2013-08-15 06:53:00,39.4,36.7,30.01,SE,135,0.0,0.0,90,0.00,,,0.00,Weather View 32 v70,2013-08-15 14:53:00,
2013-08-15 06:58:00,39.2,36.5,30.01,SE,135,0.0,0.0,90,0.00,,,0.00,Weather View 32 v70,2013-08-15 14:58:00,
2013-08-15 07:05:00,39.2,36.5,30.01,NNW,338,0.0,0.0,90,0.00,,,0.00,Weather View 32 v70,2013-08-15 15:05:00,
2013-08-15 07:20:00,39.4,36.7,29.99,NNE,22,0.0,0.0,90,0.00,,,0.00,Weather View 32 v70,2013-08-15 15:20:00,
2013-08-15 07:25:00,39.9,37.5,29.99,ENE,68,0.0,0.0,91,0.00,,,0.00,Weather View 32 v70,2013-08-15 15:25:00,
2013-08-15 07:35:00,40.3,37.9,29.99,NNW,338,0.0,0.0,91,0.00,,,0.00,Weather View 32 v70,2013-08-15 15:35:00,
2013-08-15 07:40:00,40.6,38.2,29.99,NNE,22,0.0,0.0,91,0.00,,,0.00,Weather View 32 v70,2013-08-15 15:40:00,
2013-08-15 07:45:00,41.2,39.0,29.99,NNW,338,0.0,0.0,92,0.00,,,0.00,Weather View 32 v70,2013-08-15 15:45:00,
2013-08-15 07:52:00,41.4,39.2,29.99,NE,45,0.0,0.0,92,0.00,,,0.00,Weather View 32 v70,2013-08-15 15:52:00,
2013-08-15 08:00:00,42.3,40.4,29.99,ENE,68,0.0,0.0,93,0.00,,,0.00,Weather View 32 v70,2013-08-15 16:00:00,
2013-08-15 08:05:00,42.8,40.9,29.99,NE,45,0.0,0.0,93,0.00,,,0.00,Weather View 32 v70,2013-08-15 16:05:00,
2013-08-15 08:10:00,43.2,41.3,29.99,North,0,0.0,0.0,93,0.00,,,0.00,Weather View 32 v70,2013-08-15 16:10:00,
2013-08-15 08:15:00,43.9,42.0,29.99,North,0,1.0,1.0,93,0.00,,,0.00,Weather View 32 v70,2013-08-15 16:15:00,
2013-08-15 08:30:00,45.5,43.6,30.00,North,0,0.0,1.0,93,0.00,,,0.00,Weather View 32 v70,2013-08-15 16:30:00,
2013-08-15 08:40:00,46.2,44.0,30.00,NNE,22,0.0,1.0,92,0.00,,,0.00,Weather View 32 v70,2013-08-15 16:40:00,
2013-08-15 08:45:00,46.6,44.1,30.00,SE,135,0.0,1.0,91,0.00,,,0.00,Weather View 32 v70,2013-08-15 16:45:00,
2013-08-15 08:50:00,47.7,45.2,30.00,SE,135,0.0,1.0,91,0.00,,,0.00,Weather View 32 v70,2013-08-15 16:50:00,
2013-08-15 09:00:00,48.6,45.8,30.00,NNE,22,0.0,1.0,90,0.00,,,0.00,Weather View 32 v70,2013-08-15 17:00:00,
2013-08-15 09:05:00,48.9,46.1,30.00,NW,315,0.0,1.0,90,0.00,,,0.00,Weather View 32 v70,2013-08-15 17:05:00,
2013-08-15 09:10:00,49.5,46.3,30.00,North,0,0.0,1.0,89,0.00,,,0.00,Weather View 32 v70,2013-08-15 17:10:00,
2013-08-15 09:30:00,51.6,47.6,30.01,NNE,22,1.0,1.0,86,0.00,,,0.00,Weather View 32 v70,2013-08-15 17:30:00,
2013-08-15 09:40:00,53.2,48.8,30.01,NNE,22,1.0,1.0,85,0.00,,,0.00,Weather View 32 v70,2013-08-15 17:40:00,
2013-08-15 09:53:00,54.9,49.8,30.01,NNW,338,1.0,1.0,83,0.00,,,0.00,Weather View 32 v70,2013-08-15 17:53:00,
2013-08-15 10:00:00,57.7,50.9,30.01,NNE,22,1.0,1.0,78,0.00,,,0.00,Weather View 32 v70,2013-08-15 18:00:00,
2013-08-15 10:05:00,59.9,51.2,30.00,NNE,22,1.0,1.0,73,0.00,,,0.00,Weather View 32 v70,2013-08-15 18:05:00,
2013-08-15 10:10:00,61.0,51.5,30.00,NE,45,1.0,1.0,71,0.00,,,0.00,Weather View 32 v70,2013-08-15 18:10:00,
2013-08-15 10:25:00,62.8,52.0,30.01,NW,315,1.0,1.0,68,0.00,,,0.00,Weather View 32 v70,2013-08-15 18:25:00,
2013-08-15 10:40:00,59.9,50.8,30.01,West,270,1.0,1.0,72,0.00,,,0.00,Weather View 32 v70,2013-08-15 18:40:00,
2013-08-15 10:45:00,60.6,51.1,30.02,NNE,22,1.0,1.0,71,0.00,,,0.00,Weather View 32 v70,2013-08-15 18:45:00,
2013-08-15 10:55:00,60.6,51.1,30.02,West,270,1.0,1.0,71,0.00,,,0.00,Weather View 32 v70,2013-08-15 18:55:00,
2013-08-15 11:00:00,60.3,50.8,30.02,WNW,292,1.0,1.0,71,0.00,,,0.00,Weather View 32 v70,2013-08-15 19:00:00,
2013-08-15 11:10:00,62.2,51.5,30.01,NNW,338,0.0,1.0,68,0.00,,,0.00,Weather View 32 v70,2013-08-15 19:10:00,
2013-08-15 11:20:00,61.3,51.1,30.01,NNE,22,1.0,1.0,69,0.00,,,0.00,Weather View 32 v70,2013-08-15 19:20:00,
2013-08-15 11:30:00,62.4,51.7,30.01,ESE,112,1.0,1.0,68,0.00,,,0.00,Weather View 32 v70,2013-08-15 19:30:00,
2013-08-15 11:35:00,62.8,51.6,30.01,WNW,292,1.0,1.0,67,0.00,,,0.00,Weather View 32 v70,2013-08-15 19:35:00,
2013-08-15 11:45:00,68.9,53.0,30.01,WNW,292,1.0,2.0,57,0.00,,,0.00,Weather View 32 v70,2013-08-15 19:45:00,
2013-08-15 11:50:00,69.6,53.2,30.01,NW,315,1.0,2.0,56,0.00,,,0.00,Weather View 32 v70,2013-08-15 19:50:00,
2013-08-15 12:00:00,68.5,52.7,30.01,West,270,1.0,2.0,57,0.00,,,0.00,Weather View 32 v70,2013-08-15 20:00:00,
2013-08-15 12:05:00,68.9,52.5,30.03,SSW,202,1.0,2.0,56,0.00,,,0.00,Weather View 32 v70,2013-08-15 20:05:00,
2013-08-15 12:15:00,72.1,55.0,30.03,WSW,248,2.0,2.0,55,0.00,,,0.00,Weather View 32 v70,2013-08-15 20:15:00,
2013-08-15 12:35:00,69.6,52.7,30.04,WNW,292,2.0,2.0,55,0.00,,,0.00,Weather View 32 v70,2013-08-15 20:35:00,
2013-08-15 12:40:00,70.7,53.2,30.04,NNW,338,2.0,2.0,54,0.00,,,0.00,Weather View 32 v70,2013-08-15 20:40:00,
2013-08-15 12:45:00,70.5,53.0,30.03,SE,135,2.0,2.0,54,0.00,,,0.00,Weather View 32 v70,2013-08-15 20:45:00,
2013-08-15 13:00:00,71.6,54.0,30.03,SW,225,2.0,2.0,54,0.00,,,0.00,Weather View 32 v70,2013-08-15 21:00:00,
2013-08-15 13:10:00,74.7,54.7,30.04,WNW,292,2.0,2.0,50,0.00,,,0.00,Weather View 32 v70,2013-08-15 21:10:00,
2013-08-15 13:20:00,74.8,53.8,30.04,West,270,3.0,3.0,48,0.00,,,0.00,Weather View 32 v70,2013-08-15 21:20:00,
2013-08-15 13:45:00,69.6,52.7,30.04,WSW,248,1.0,3.0,55,0.00,,,0.00,Weather View 32 v70,2013-08-15 21:45:00,
2013-08-15 13:55:00,71.6,54.0,30.04,SW,225,2.0,3.0,54,0.00,,,0.00,Weather View 32 v70,2013-08-15 21:55:00,
2013-08-15 14:05:00,68.7,51.9,30.03,West,270,3.0,3.0,55,0.00,,,0.00,Weather View 32 v70,2013-08-15 22:05:00,
2013-08-15 14:10:00,71.2,53.7,30.03,West,270,3.0,3.0,54,0.00,,,0.00,Weather View 32 v70,2013-08-15 22:10:00,
2013-08-15 14:20:00,73.4,54.1,30.03,North,0,3.0,3.0,51,0.00,,,0.00,Weather View 32 v70,2013-08-15 22:20:00,
2013-08-15 14:25:00,79.3,54.8,30.02,NW,315,3.0,3.0,43,0.00,,,0.00,Weather View 32 v70,2013-08-15 22:25:00,
2013-08-15 14:30:00,80.1,54.8,30.02,NW,315,3.0,3.0,42,0.00,,,0.00,Weather View 32 v70,2013-08-15 22:30:00,
2013-08-15 14:35:00,81.3,53.9,30.02,WNW,292,3.0,3.0,39,0.00,,,0.00,Weather View 32 v70,2013-08-15 22:35:00,
2013-08-15 14:45:00,76.5,52.9,30.01,NW,315,3.0,3.0,44,0.00,,,0.00,Weather View 32 v70,2013-08-15 22:45:00,
2013-08-15 14:50:00,76.6,53.0,30.01,WNW,292,3.0,3.0,44,0.00,,,0.00,Weather View 32 v70,2013-08-15 22:50:00,
2013-08-15 14:56:00,75.0,52.2,30.01,WNW,292,3.0,3.0,45,0.00,,,0.00,Weather View 32 v70,2013-08-15 22:56:00,
2013-08-15 15:10:00,79.5,53.7,30.03,West,270,3.0,3.0,41,0.00,,,0.00,Weather View 32 v70,2013-08-15 23:10:00,
2013-08-15 15:15:00,83.1,55.5,30.03,NW,315,3.0,3.0,39,0.00,,,0.00,Weather View 32 v70,2013-08-15 23:15:00,
2013-08-15 15:25:00,81.5,54.8,30.01,South,180,4.0,4.0,40,0.00,,,0.00,Weather View 32 v70,2013-08-15 23:25:00,
2013-08-15 15:35:00,80.8,53.4,30.01,NNW,338,2.0,4.0,39,0.00,,,0.00,Weather View 32 v70,2013-08-15 23:35:00,
2013-08-15 15:40:00,80.8,54.1,30.01,NNW,338,2.0,4.0,40,0.00,,,0.00,Weather View 32 v70,2013-08-15 23:40:00,
2013-08-15 15:45:00,74.7,52.4,30.01,NW,315,3.0,4.0,46,0.00,,,0.00,Weather View 32 v70,2013-08-15 23:45:00,
2013-08-15 15:55:00,72.1,52.4,30.03,WSW,248,2.0,4.0,50,0.00,,,0.00,Weather View 32 v70,2013-08-15 23:55:00,
2013-08-15 16:05:00,70.7,52.2,30.01,West,270,2.0,4.0,52,0.00,,,0.00,Weather View 32 v70,2013-08-16 00:05:00,
2013-08-15 16:15:00,68.7,51.9,30.01,NW,315,3.0,4.0,55,0.00,,,0.00,Weather View 32 v70,2013-08-16 00:15:00,
2013-08-15 16:20:00,68.5,51.7,30.01,WSW,248,2.0,4.0,55,0.00,,,0.00,Weather View 32 v70,2013-08-16 00:20:00,
2013-08-15 16:25:00,68.2,52.8,30.01,NW,315,2.0,4.0,58,0.00,,,0.00,Weather View 32 v70,2013-08-16 00:25:00,
2013-08-15 16:35:00,67.3,52.4,30.01,WSW,248,3.0,3.0,59,0.00,,,0.00,Weather View 32 v70,2013-08-16 00:35:00,
2013-08-15 16:40:00,67.3,52.0,30.01,WSW,248,3.0,3.0,58,0.00,,,0.00,Weather View 32 v70,2013-08-16 00:40:00,
2013-08-15 16:50:00,66.7,52.4,30.00,West,270,3.0,3.0,60,0.00,,,0.00,Weather View 32 v70,2013-08-16 00:50:00,
2013-08-15 16:55:00,66.7,52.4,30.00,SW,225,3.0,3.0,60,0.00,,,0.00,Weather View 32 v70,2013-08-16 00:55:00,
2013-08-15 17:00:00,66.6,51.7,30.00,West,270,3.0,3.0,59,0.00,,,0.00,Weather View 32 v70,2013-08-16 01:00:00,
2013-08-15 17:05:00,66.2,51.9,29.98,NW,315,3.0,3.0,60,0.00,,,0.00,Weather View 32 v70,2013-08-16 01:05:00,
2013-08-15 17:20:00,66.2,52.3,29.98,WSW,248,3.0,3.0,61,0.00,,,0.00,Weather View 32 v70,2013-08-16 01:20:00,
2013-08-15 17:25:00,66.2,52.3,29.98,West,270,2.0,3.0,61,0.00,,,0.00,Weather View 32 v70,2013-08-16 01:25:00,
2013-08-15 17:40:00,66.2,52.8,29.98,NW,315,3.0,3.0,62,0.00,,,0.00,Weather View 32 v70,2013-08-16 01:40:00,
2013-08-15 17:45:00,66.0,52.1,29.96,West,270,3.0,3.0,61,0.00,,,0.00,Weather View 32 v70,2013-08-16 01:45:00,
2013-08-15 17:50:00,65.8,52.4,29.96,NW,315,3.0,3.0,62,0.00,,,0.00,Weather View 32 v70,2013-08-16 01:50:00,
2013-08-15 17:58:00,65.8,52.0,29.96,West,270,3.0,3.0,61,0.00,,,0.00,Weather View 32 v70,2013-08-16 01:58:00,
2013-08-15 18:05:00,66.0,52.6,29.96,West,270,3.0,3.0,62,0.00,,,0.00,Weather View 32 v70,2013-08-16 02:05:00,
2013-08-15 18:15:00,66.4,52.5,29.96,NW,315,3.0,3.0,61,0.00,,,0.00,Weather View 32 v70,2013-08-16 02:15:00,
2013-08-15 18:20:00,66.2,52.3,29.96,WSW,248,3.0,3.0,61,0.00,,,0.00,Weather View 32 v70,2013-08-16 02:20:00,
2013-08-15 18:25:00,65.7,51.8,29.95,West,270,3.0,3.0,61,0.00,,,0.00,Weather View 32 v70,2013-08-16 02:25:00,
2013-08-15 18:35:00,64.6,51.2,29.95,West,270,3.0,3.0,62,0.00,,,0.00,Weather View 32 v70,2013-08-16 02:35:00,
2013-08-15 18:45:00,64.2,51.3,29.95,WNW,292,3.0,3.0,63,0.00,,,0.00,Weather View 32 v70,2013-08-16 02:45:00,
2013-08-15 18:50:00,64.2,51.3,29.95,WNW,292,3.0,3.0,63,0.00,,,0.00,Weather View 32 v70,2013-08-16 02:50:00,
2013-08-15 18:55:00,63.7,51.2,29.95,West,270,3.0,3.0,64,0.00,,,0.00,Weather View 32 v70,2013-08-16 02:55:00,
2013-08-15 19:00:00,63.1,50.7,29.95,NW,315,3.0,3.0,64,0.00,,,0.00,Weather View 32 v70,2013-08-16 03:00:00,
2013-08-15 19:10:00,62.8,50.8,29.95,SW,225,3.0,3.0,65,0.00,,,0.00,Weather View 32 v70,2013-08-16 03:10:00,
2013-08-15 19:20:00,62.2,50.3,29.95,WSW,248,2.0,3.0,65,0.00,,,0.00,Weather View 32 v70,2013-08-16 03:20:00,
2013-08-15 19:25:00,62.4,50.5,29.95,WSW,248,2.0,3.0,65,0.00,,,0.00,Weather View 32 v70,2013-08-16 03:25:00,
2013-08-15 19:30:00,62.4,50.5,29.95,WNW,292,2.0,3.0,65,0.00,,,0.00,Weather View 32 v70,2013-08-16 03:30:00,
2013-08-15 19:40:00,63.1,51.2,29.95,WNW,292,2.0,3.0,65,0.00,,,0.00,Weather View 32 v70,2013-08-16 03:40:00,
2013-08-15 19:45:00,63.0,51.0,29.95,WNW,292,2.0,3.0,65,0.00,,,0.00,Weather View 32 v70,2013-08-16 03:45:00,
2013-08-15 19:50:00,62.8,50.8,29.95,North,0,3.0,3.0,65,0.00,,,0.00,Weather View 32 v70,2013-08-16 03:50:00,
2013-08-15 19:55:00,62.4,50.9,29.95,WSW,248,3.0,3.0,66,0.00,,,0.00,Weather View 32 v70,2013-08-16 03:55:00,
2013-08-15 20:00:00,62.4,50.9,29.95,WSW,248,2.0,3.0,66,0.00,,,0.00,Weather View 32 v70,2013-08-16 04:00:00,
2013-08-15 20:05:00,62.8,51.2,29.95,NW,315,2.0,3.0,66,0.00,,,0.00,Weather View 32 v70,2013-08-16 04:05:00,
2013-08-15 20:10:00,62.8,51.2,29.95,WSW,248,3.0,3.0,66,0.00,,,0.00,Weather View 32 v70,2013-08-16 04:10:00,
2013-08-15 20:15:00,62.4,50.9,29.95,WNW,292,3.0,3.0,66,0.00,,,0.00,Weather View 32 v70,2013-08-16 04:15:00,
2013-08-15 20:20:00,62.2,51.1,29.95,West,270,3.0,3.0,67,0.00,,,0.00,Weather View 32 v70,2013-08-16 04:20:00,
2013-08-15 20:25:00,62.4,51.3,29.94,WNW,292,2.0,3.0,67,0.00,,,0.00,Weather View 32 v70,2013-08-16 04:25:00,
2013-08-15 20:30:00,62.2,51.1,29.94,WSW,248,2.0,3.0,67,0.00,,,0.00,Weather View 32 v70,2013-08-16 04:30:00,
2013-08-15 20:35:00,61.7,50.6,29.94,West,270,3.0,3.0,67,0.00,,,0.00,Weather View 32 v70,2013-08-16 04:35:00,
2013-08-15 20:40:00,61.3,50.7,29.94,West,270,3.0,3.0,68,0.00,,,0.00,Weather View 32 v70,2013-08-16 04:40:00,
2013-08-15 20:45:00,60.8,50.1,29.94,West,270,2.0,3.0,68,0.00,,,0.00,Weather View 32 v70,2013-08-16 04:45:00,
2013-08-15 20:55:00,60.3,50.0,29.94,North,0,1.0,3.0,69,0.00,,,0.00,Weather View 32 v70,2013-08-16 04:55:00,
2013-08-15 21:00:00,59.5,49.3,29.94,West,270,1.0,3.0,69,0.00,,,0.00,Weather View 32 v70,2013-08-16 05:00:00,
2013-08-15 21:05:00,59.5,49.7,29.94,WSW,248,1.0,3.0,70,0.00,,,0.00,Weather View 32 v70,2013-08-16 05:05:00,
2013-08-15 21:10:00,59.5,49.7,29.94,West,270,1.0,3.0,70,0.00,,,0.00,Weather View 32 v70,2013-08-16 05:10:00,
2013-08-15 21:20:00,59.5,50.1,29.94,WNW,292,0.0,3.0,71,0.00,,,0.00,Weather View 32 v70,2013-08-16 05:20:00,
2013-08-15 21:30:00,58.6,50.0,29.93,SSW,202,0.0,3.0,73,0.00,,,0.00,Weather View 32 v70,2013-08-16 05:30:00,
2013-08-15 21:40:00,57.7,50.2,29.93,South,180,0.0,3.0,76,0.00,,,0.00,Weather View 32 v70,2013-08-16 05:40:00,
2013-08-15 21:45:00,57.0,49.9,29.92,South,180,0.0,2.0,77,0.00,,,0.00,Weather View 32 v70,2013-08-16 05:45:00,
2013-08-15 21:55:00,56.7,50.2,29.92,NNW,338,1.0,1.0,79,0.00,,,0.00,Weather View 32 v70,2013-08-16 05:55:00,
2013-08-15 22:00:00,56.5,50.0,29.92,SE,135,1.0,1.0,79,0.00,,,0.00,Weather View 32 v70,2013-08-16 06:00:00,
2013-08-15 22:10:00,56.7,50.2,29.92,SSE,158,1.0,1.0,79,0.00,,,0.00,Weather View 32 v70,2013-08-16 06:10:00,
2013-08-15 22:20:00,56.7,50.5,29.92,WSW,248,1.0,1.0,80,0.00,,,0.00,Weather View 32 v70,2013-08-16 06:20:00,
2013-08-15 22:25:00,56.7,50.5,29.90,South,180,1.0,1.0,80,0.00,,,0.00,Weather View 32 v70,2013-08-16 06:25:00,
2013-08-15 22:30:00,56.7,50.9,29.90,South,180,1.0,1.0,81,0.00,,,0.00,Weather View 32 v70,2013-08-16 06:30:00,
2013-08-15 22:35:00,56.7,50.9,29.90,SW,225,0.0,1.0,81,0.00,,,0.00,Weather View 32 v70,2013-08-16 06:35:00,
2013-08-15 22:40:00,56.7,50.9,29.90,North,0,1.0,1.0,81,0.00,,,0.00,Weather View 32 v70,2013-08-16 06:40:00,
2013-08-15 22:46:00,56.7,50.9,29.90,North,0,1.0,1.0,81,0.00,,,0.00,Weather View 32 v70,2013-08-16 06:46:00,
2013-08-15 22:51:00,56.5,50.7,29.91,SW,225,0.0,1.0,81,0.00,,,0.00,Weather View 32 v70,2013-08-16 06:51:00,
2013-08-15 22:56:00,56.5,50.7,29.91,SSE,158,0.0,1.0,81,0.00,,,0.00,Weather View 32 v70,2013-08-16 06:56:00,
2013-08-15 23:01:00,56.7,50.9,29.91,South,180,1.0,1.0,81,0.00,,,0.00,Weather View 32 v70,2013-08-16 07:01:00,
2013-08-15 23:06:00,56.5,50.7,29.91,SE,135,1.0,1.0,81,0.00,,,0.00,Weather View 32 v70,2013-08-16 07:06:00,
2013-08-15 23:11:00,56.3,50.2,29.91,SW,225,1.0,1.0,80,0.00,,,0.00,Weather View 32 v70,2013-08-16 07:11:00,
2013-08-15 23:16:00,56.1,50.0,29.91,SW,225,0.0,1.0,80,0.00,,,0.00,Weather View 32 v70,2013-08-16 07:16:00,
2013-08-15 23:21:00,55.9,49.8,29.91,SW,225,0.0,1.0,80,0.00,,,0.00,Weather View 32 v70,2013-08-16 07:21:00,
2013-08-15 23:26:00,55.9,50.5,29.90,SSE,158,0.0,1.0,82,0.00,,,0.00,Weather View 32 v70,2013-08-16 07:26:00,
2013-08-15 23:31:00,55.6,50.5,29.90,SW,225,0.0,1.0,83,0.00,,,0.00,Weather View 32 v70,2013-08-16 07:31:00,
2013-08-15 23:36:00,55.6,50.5,29.90,SE,135,0.0,1.0,83,0.00,,,0.00,Weather View 32 v70,2013-08-16 07:36:00,
2013-08-15 23:41:00,55.6,50.5,29.90,SW,225,0.0,1.0,83,0.00,,,0.00,Weather View 32 v70,2013-08-16 07:41:00,
2013-08-15 23:46:00,55.6,50.5,29.89,SW,225,0.0,1.0,83,0.00,,,0.00,Weather View 32 v70,2013-08-16 07:46:00,
2013-08-15 23:51:00,55.6,50.5,29.89,South,180,0.0,1.0,83,0.00,,,0.00,Weather View 32 v70,2013-08-16 07:51:00,
2013-08-15 23:56:00,55.6,50.2,29.89,WSW,248,0.0,1.0,82,0.00,,,0.00,Weather View 32 v70,2013-08-16 07:56:00,